createdAt,value
2023-04-09T00:00:43.770Z,10.43
2023-04-09T00:03:10.996Z,10.40
2023-04-09T00:05:41.088Z,10.37
2023-04-09T00:08:08.204Z,10.36
2023-04-09T00:10:35.039Z,10.33
2023-04-09T00:13:02.698Z,10.34
2023-04-09T00:15:31.536Z,10.34
2023-04-09T00:17:59.356Z,10.35
2023-04-09T00:20:26.533Z,10.35
2023-04-09T00:22:53.389Z,10.34
2023-04-09T00:25:20.470Z,10.37
2023-04-09T00:27:47.309Z,10.37
2023-04-09T00:30:14.069Z,10.41
2023-04-09T00:32:41.274Z,10.42
2023-04-09T00:35:08.929Z,10.46
2023-04-09T00:37:35.852Z,10.49
2023-04-09T00:40:02.852Z,10.49
2023-04-09T00:42:33.517Z,10.52
2023-04-09T00:45:00.838Z,10.51
2023-04-09T00:47:29.926Z,10.48
2023-04-09T00:49:57.201Z,10.50
2023-04-09T00:52:24.787Z,10.50
2023-04-09T00:54:52.492Z,10.52
2023-04-09T00:57:20.226Z,10.49
2023-04-09T00:59:46.913Z,10.45
2023-04-09T01:02:13.934Z,10.44
2023-04-09T01:04:42.483Z,10.41
2023-04-09T01:07:20.952Z,10.36
2023-04-09T01:10:15.330Z,10.32
2023-04-09T01:13:01.274Z,10.26
2023-04-09T01:15:34.321Z,10.23
2023-04-09T01:18:08.192Z,10.22
2023-04-09T01:20:52.071Z,10.17
2023-04-09T01:23:45.724Z,10.18
2023-04-09T01:26:30.644Z,10.21
2023-04-09T01:28:59.417Z,10.22
2023-04-09T01:31:33.057Z,10.25
2023-04-09T01:34:02.790Z,10.29
2023-04-09T01:36:32.425Z,10.32
2023-04-09T01:39:01.682Z,10.33
2023-04-09T01:41:31.318Z,10.36
2023-04-09T01:44:01.810Z,10.37
2023-04-09T01:46:30.232Z,10.38
2023-04-09T01:48:57.878Z,10.40
2023-04-09T01:51:24.871Z,10.40
2023-04-09T01:53:51.744Z,10.39
2023-04-09T01:56:18.685Z,10.38
2023-04-09T01:58:45.374Z,10.34
2023-04-09T02:01:33.560Z,10.34
2023-04-09T02:04:05.578Z,10.35
2023-04-09T02:06:41.970Z,10.36
2023-04-09T02:09:09.876Z,10.34
2023-04-09T02:11:42.574Z,10.29
2023-04-09T02:14:11.311Z,10.30
2023-04-09T02:16:39.500Z,10.25
2023-04-09T02:19:06.423Z,10.23
2023-04-09T02:21:33.106Z,10.20
2023-04-09T02:23:59.897Z,10.20
2023-04-09T02:26:26.718Z,10.21
2023-04-09T02:28:53.751Z,10.17
2023-04-09T02:31:20.764Z,10.16
2023-04-09T02:33:47.730Z,10.18
2023-04-09T02:36:14.458Z,10.13
2023-04-09T02:38:42.187Z,10.10
2023-04-09T02:41:09.752Z,10.07
2023-04-09T02:43:36.738Z,10.09
2023-04-09T02:46:03.611Z,10.12
2023-04-09T02:48:30.525Z,10.12
2023-04-09T02:50:57.385Z,10.11
2023-04-09T02:53:24.134Z,10.12
2023-04-09T02:55:51.046Z,10.10
2023-04-09T02:58:17.698Z,10.09
2023-04-09T03:00:44.433Z,10.07
2023-04-09T03:03:11.516Z,10.08
2023-04-09T03:05:39.058Z,10.06
2023-04-09T03:08:05.880Z,10.07
2023-04-09T03:10:32.852Z,10.07
2023-04-09T03:12:59.523Z,10.07
2023-04-09T03:15:26.172Z,10.05
2023-04-09T03:17:53.167Z,10.06
2023-04-09T03:20:19.888Z,10.04
2023-04-09T03:22:46.554Z,10.06
2023-04-09T03:25:13.646Z,10.03
2023-04-09T03:27:40.357Z,10.04
2023-04-09T03:30:07.654Z,10.05
2023-04-09T03:32:34.566Z,10.05
2023-04-09T03:35:01.261Z,10.06
2023-04-09T03:37:27.902Z,10.06
2023-04-09T03:39:54.896Z,10.09
2023-04-09T03:42:21.572Z,10.09
2023-04-09T03:44:48.245Z,10.09
2023-04-09T03:47:15.317Z,10.11
2023-04-09T03:49:42.022Z,10.12
2023-04-09T03:52:08.669Z,10.10
2023-04-09T03:54:35.714Z,10.09
2023-04-09T03:57:03.829Z,10.09
2023-04-09T03:59:30.756Z,10.07
2023-04-09T04:01:57.770Z,10.05
2023-04-09T04:04:24.537Z,10.05
2023-04-09T04:06:51.572Z,10.03
2023-04-09T04:09:18.569Z,10.02
2023-04-09T04:11:45.416Z,10.02
2023-04-09T04:14:12.061Z,10.00
2023-04-09T04:16:41.148Z,10.01
2023-04-09T04:19:07.878Z,10.03
2023-04-09T04:21:34.534Z,10.03
2023-04-09T04:24:03.485Z,10.03
2023-04-09T04:26:30.335Z,10.03
2023-04-09T04:28:56.997Z,10.04
2023-04-09T04:31:24.018Z,10.04
2023-04-09T04:33:50.759Z,10.03
2023-04-09T04:36:17.427Z,10.05
2023-04-09T04:38:44.592Z,10.06
2023-04-09T04:41:11.997Z,10.05
2023-04-09T04:43:38.689Z,10.05
2023-04-09T04:46:06.503Z,10.04
2023-04-09T04:48:33.276Z,10.06
2023-04-09T04:51:01.980Z,10.08
2023-04-09T04:53:28.907Z,10.08
2023-04-09T04:55:55.654Z,10.09
2023-04-09T04:58:22.342Z,10.11
2023-04-09T05:00:49.394Z,10.12
2023-04-09T05:03:16.482Z,10.15
2023-04-09T05:05:43.390Z,10.17
2023-04-09T05:08:10.443Z,10.15
2023-04-09T05:10:37.369Z,10.15
2023-04-09T05:13:04.153Z,10.17
2023-04-09T05:15:31.211Z,10.17
2023-04-09T05:17:58.341Z,10.15
2023-04-09T05:20:27.358Z,10.14
2023-04-09T05:22:54.397Z,10.10
2023-04-09T05:25:21.089Z,10.12
2023-04-09T05:27:47.793Z,10.12
2023-04-09T05:30:14.692Z,10.11
2023-04-09T05:32:41.518Z,10.06
2023-04-09T05:35:08.589Z,10.08
2023-04-09T05:37:35.802Z,10.06
2023-04-09T05:40:02.989Z,10.04
2023-04-09T05:42:29.748Z,10.05
2023-04-09T05:44:56.878Z,10.07
2023-04-09T05:47:23.526Z,10.07
2023-04-09T05:49:50.221Z,10.06
2023-04-09T05:52:17.462Z,10.05
2023-04-09T05:54:44.128Z,10.05
2023-04-09T05:57:10.816Z,10.06
2023-04-09T05:59:37.966Z,10.07
2023-04-09T06:02:04.728Z,10.08
2023-04-09T06:04:31.930Z,10.11
2023-04-09T06:07:00.583Z,10.12
2023-04-09T06:09:30.360Z,10.13
2023-04-09T06:11:58.631Z,10.16
2023-04-09T06:14:25.567Z,10.19
2023-04-09T06:16:52.239Z,10.23
2023-04-09T06:19:19.051Z,10.24
2023-04-09T06:21:46.146Z,10.28
2023-04-09T06:24:12.868Z,10.30
2023-04-09T06:26:39.613Z,10.37
2023-04-09T06:29:06.727Z,10.40
2023-04-09T06:31:33.607Z,10.42
2023-04-09T06:34:00.482Z,10.48
2023-04-09T06:36:28.046Z,10.49
2023-04-09T06:38:54.841Z,10.49
2023-04-09T06:41:22.599Z,10.54
2023-04-09T06:43:49.918Z,10.57
2023-04-09T06:46:20.149Z,10.62
2023-04-09T06:48:47.425Z,10.65
2023-04-09T06:51:15.313Z,10.66
2023-04-09T06:53:42.273Z,10.68
2023-04-09T06:56:09.095Z,10.67
2023-04-09T06:58:36.524Z,10.69
2023-04-09T07:01:03.513Z,10.68
2023-04-09T07:03:30.468Z,10.67
2023-04-09T07:05:57.910Z,10.67
2023-04-09T07:08:25.133Z,10.65
2023-04-09T07:10:51.794Z,10.67
2023-04-09T07:13:18.677Z,10.64
2023-04-09T07:15:45.539Z,10.66
2023-04-09T07:18:12.381Z,10.67
2023-04-09T07:20:39.335Z,10.69
2023-04-09T07:23:06.105Z,10.73
2023-04-09T07:25:32.868Z,10.75
2023-04-09T07:28:00.108Z,10.79
2023-04-09T07:30:27.483Z,10.82
2023-04-09T07:32:54.434Z,10.85
2023-04-09T07:35:21.843Z,10.87
2023-04-09T07:37:48.599Z,10.90
2023-04-09T07:40:15.486Z,10.93
2023-04-09T07:42:42.701Z,10.96
2023-04-09T07:45:09.707Z,10.99
2023-04-09T07:47:38.132Z,10.98
2023-04-09T07:50:05.695Z,11.00
2023-04-09T07:52:32.494Z,11.02
2023-04-09T07:54:59.170Z,11.05
2023-04-09T07:57:26.071Z,11.09
2023-04-09T07:59:53.477Z,11.18
2023-04-09T08:02:20.190Z,11.24
2023-04-09T08:04:47.286Z,11.33
2023-04-09T08:07:14.066Z,11.40
2023-04-09T08:09:41.094Z,11.53
2023-04-09T08:12:08.278Z,11.56
2023-04-09T08:14:35.053Z,11.62
2023-04-09T08:17:01.753Z,11.66
2023-04-09T08:19:28.486Z,11.69
2023-04-09T08:21:55.617Z,11.72
2023-04-09T08:24:22.566Z,11.75
2023-04-09T08:26:49.460Z,11.78
2023-04-09T08:29:16.246Z,11.74
2023-04-09T08:31:43.243Z,11.76
2023-04-09T08:34:10.173Z,11.80
2023-04-09T08:36:37.161Z,11.89
2023-04-09T08:39:04.153Z,11.99
2023-04-09T08:41:31.502Z,12.03
2023-04-09T08:43:59.887Z,12.02
2023-04-09T08:46:27.859Z,12.02
2023-04-09T08:48:55.348Z,12.02
2023-04-09T08:51:23.753Z,12.00
2023-04-09T08:53:57.270Z,12.09
2023-04-09T08:56:24.662Z,12.13
2023-04-09T08:58:51.742Z,12.19
2023-04-09T09:01:26.246Z,12.26
2023-04-09T09:03:57.376Z,12.33
2023-04-09T09:06:27.389Z,12.40
2023-04-09T09:09:17.691Z,12.47
2023-04-09T09:11:46.568Z,12.52
2023-04-09T09:14:15.501Z,12.56
2023-04-09T09:16:45.030Z,12.51
2023-04-09T09:19:27.333Z,12.56
2023-04-09T09:21:57.951Z,12.53
2023-04-09T09:24:24.734Z,12.53
2023-04-09T09:26:52.351Z,12.55
2023-04-09T09:29:20.149Z,12.59
2023-04-09T09:31:49.492Z,12.60
2023-04-09T09:34:17.655Z,12.60
2023-04-09T09:36:45.961Z,12.63
2023-04-09T09:39:14.089Z,12.62
2023-04-09T09:41:44.188Z,12.63
2023-04-09T09:44:12.923Z,12.61
2023-04-09T09:46:42.472Z,12.62
2023-04-09T09:49:10.115Z,12.54
2023-04-09T09:51:39.386Z,12.50
2023-04-09T09:54:08.187Z,12.52
2023-04-09T09:56:39.727Z,12.57
2023-04-09T09:59:23.342Z,12.57
2023-04-09T10:02:02.941Z,12.56
2023-04-09T10:04:33.513Z,12.50
2023-04-09T10:07:02.704Z,12.53
2023-04-09T10:09:29.884Z,12.48
2023-04-09T10:11:59.374Z,12.51
2023-04-09T10:14:28.906Z,12.48
2023-04-09T10:16:56.318Z,12.51
2023-04-09T10:19:23.991Z,12.50
2023-04-09T10:21:57.994Z,12.53
2023-04-09T10:24:25.483Z,12.60
2023-04-09T10:26:54.944Z,12.58
2023-04-09T10:29:29.021Z,12.64
2023-04-09T10:32:06.451Z,12.62
2023-04-09T10:34:40.151Z,12.62
2023-04-09T10:37:20.610Z,12.67
2023-04-09T10:39:48.880Z,12.70
2023-04-09T10:42:22.138Z,12.75
2023-04-09T10:45:04.648Z,12.65
2023-04-09T10:47:34.218Z,12.60
2023-04-09T10:50:24.733Z,12.64
2023-04-09T10:52:57.474Z,12.67
2023-04-09T10:55:31.251Z,12.65
2023-04-09T10:57:58.581Z,12.62
2023-04-09T11:00:25.538Z,12.60
2023-04-09T11:03:13.888Z,12.52
2023-04-09T11:05:43.474Z,12.51
2023-04-09T11:08:14.561Z,12.50
2023-04-09T11:10:46.396Z,12.49
2023-04-09T11:13:15.506Z,12.50
2023-04-09T11:15:44.092Z,12.52
2023-04-09T11:18:25.309Z,12.55
2023-04-09T11:21:04.149Z,12.60
2023-04-09T11:23:32.317Z,12.65
2023-04-09T11:25:59.100Z,12.64
2023-04-09T11:28:26.550Z,12.69
2023-04-09T11:30:53.973Z,12.71
2023-04-09T11:33:20.830Z,12.76
2023-04-09T11:35:48.328Z,12.77
2023-04-09T11:38:15.333Z,12.78
2023-04-09T11:40:48.752Z,12.78
2023-04-09T11:43:16.942Z,12.77
2023-04-09T11:45:44.454Z,12.78
2023-04-09T11:48:11.712Z,12.82
2023-04-09T11:50:38.800Z,12.75
2023-04-09T11:53:21.916Z,12.69
2023-04-09T11:55:52.092Z,12.68
2023-04-09T11:58:22.250Z,12.67
2023-04-09T12:00:49.009Z,12.67
2023-04-09T12:03:16.873Z,12.70
2023-04-09T12:05:50.590Z,12.67
2023-04-09T12:08:24.040Z,12.64
2023-04-09T12:10:53.399Z,12.60
2023-04-09T12:13:21.013Z,12.58
2023-04-09T12:15:49.396Z,12.57
2023-04-09T12:18:16.052Z,12.60
2023-04-09T12:20:44.336Z,12.58
2023-04-09T12:23:12.399Z,12.60
2023-04-09T12:25:41.428Z,12.60
2023-04-09T12:28:12.142Z,12.56
2023-04-09T12:30:39.066Z,12.55
2023-04-09T12:33:08.271Z,12.51
2023-04-09T12:35:38.265Z,12.50
2023-04-09T12:38:05.533Z,12.46
2023-04-09T12:40:32.480Z,12.45
2023-04-09T12:42:59.364Z,12.45
2023-04-09T12:45:26.709Z,12.46
2023-04-09T12:47:53.665Z,12.46
2023-04-09T12:50:20.525Z,12.45
2023-04-09T12:52:47.813Z,12.50
2023-04-09T12:55:15.646Z,12.53
2023-04-09T12:57:47.275Z,12.57
2023-04-09T13:00:15.100Z,12.60
2023-04-09T13:02:42.389Z,12.63
2023-04-09T13:05:09.561Z,12.64
2023-04-09T13:07:36.386Z,12.68
2023-04-09T13:10:03.524Z,12.69
2023-04-09T13:12:30.853Z,12.73
2023-04-09T13:14:59.320Z,12.73
2023-04-09T13:17:26.263Z,12.79
2023-04-09T13:19:53.698Z,12.81
2023-04-09T13:22:20.625Z,12.84
2023-04-09T13:24:47.451Z,12.82
2023-04-09T13:27:14.409Z,12.77
2023-04-09T13:29:41.212Z,12.72
2023-04-09T13:32:07.978Z,12.70
2023-04-09T13:34:35.716Z,12.63
2023-04-09T13:37:05.905Z,12.61
2023-04-09T13:39:33.246Z,12.62
2023-04-09T13:42:01.466Z,12.62
2023-04-09T13:44:30.595Z,12.65
2023-04-09T13:46:57.385Z,12.66
2023-04-09T13:49:24.398Z,12.68
2023-04-09T13:51:51.266Z,12.70
2023-04-09T13:54:19.003Z,12.71
2023-04-09T13:56:46.815Z,12.73
2023-04-09T13:59:13.677Z,12.69
2023-04-09T14:01:41.017Z,12.71
2023-04-09T14:04:08.382Z,12.71
2023-04-09T14:06:35.374Z,12.69
2023-04-09T14:09:02.625Z,12.65
2023-04-09T14:11:29.672Z,12.66
2023-04-09T14:13:56.562Z,12.65
2023-04-09T14:16:23.974Z,12.62
2023-04-09T14:18:51.475Z,12.62
2023-04-09T14:21:18.981Z,12.65
2023-04-09T14:23:46.192Z,12.72
2023-04-09T14:26:13.029Z,12.77
2023-04-09T14:28:39.972Z,12.82
2023-04-09T14:31:07.017Z,12.91
2023-04-09T14:33:33.835Z,13.00
2023-04-09T14:36:01.066Z,13.10
2023-04-09T14:38:27.937Z,13.24
2023-04-09T14:40:54.803Z,13.33
2023-04-09T14:43:21.616Z,13.48
2023-04-09T14:45:48.385Z,13.64
2023-04-09T14:48:15.469Z,13.78
2023-04-09T14:50:43.288Z,13.91
2023-04-09T14:53:10.331Z,14.07
2023-04-09T14:55:37.138Z,14.11
2023-04-09T14:58:04.745Z,14.05
2023-04-09T15:00:32.422Z,13.98
2023-04-09T15:03:00.206Z,13.89
2023-04-09T15:05:27.463Z,13.85
2023-04-09T15:07:55.959Z,13.80
2023-04-09T15:10:22.734Z,13.74
2023-04-09T15:12:49.608Z,13.72
2023-04-09T15:15:16.426Z,13.73
2023-04-09T15:17:43.279Z,13.78
2023-04-09T15:20:10.648Z,13.85
2023-04-09T15:22:37.376Z,13.93
2023-04-09T15:25:04.220Z,13.97
2023-04-09T15:27:31.270Z,14.09
2023-04-09T15:29:58.185Z,14.07
2023-04-09T15:32:25.137Z,13.99
2023-04-09T15:34:51.994Z,13.94
2023-04-09T15:37:18.787Z,13.88
2023-04-09T15:39:45.855Z,13.83
2023-04-09T15:42:14.658Z,13.67
2023-04-09T15:44:41.619Z,13.58
2023-04-09T15:47:08.365Z,13.56
2023-04-09T15:49:37.061Z,13.48
2023-04-09T15:52:04.150Z,13.45
2023-04-09T15:54:31.137Z,13.44
2023-04-09T15:56:57.908Z,13.48
2023-04-09T15:59:24.772Z,13.50
2023-04-09T16:01:52.697Z,13.53
2023-04-09T16:04:19.560Z,13.64
2023-04-09T16:06:46.386Z,13.78
2023-04-09T16:09:13.085Z,13.84
2023-04-09T16:11:40.705Z,13.92
2023-04-09T16:14:09.114Z,13.92
2023-04-09T16:16:37.100Z,13.92
2023-04-09T16:19:03.997Z,13.86
2023-04-09T16:21:31.201Z,13.75
2023-04-09T16:23:57.906Z,13.68
2023-04-09T16:26:24.663Z,13.64
2023-04-09T16:28:51.801Z,13.60
2023-04-09T16:31:18.822Z,13.59
2023-04-09T16:33:45.618Z,13.57
2023-04-09T16:36:12.348Z,13.58
2023-04-09T16:38:39.334Z,13.58
